NCAR-RAP Real-Time Weather Data

Output produced by METARs form (08 May 2021  00:37 UTC)
found at http://weather.rap.ucar.edu/surface/
 
KGFL 072353Z AUTO 05006KT 10SM BKN085 OVC110 15/00 A2984 RMK AO2 SLP107 T01500000 10172 20150 51002
KGFL 072253Z AUTO 14003KT 10SM OVC110 16/00 A2984 RMK AO2 SLP107 T01560000
KGFL 072153Z AUTO 07003KT 10SM OVC095 16/M02 A2984 RMK AO2 SLP107 T01611017
KGFL 072053Z AUTO 04005KT 10SM OVC100 16/M02 A2983 RMK AO2 SLP105 T01611017 56018
KGFL 071953Z AUTO VRB05KT 10SM FEW085 SCT120 17/M02 A2984 RMK AO2 SLP108 T01671017
KGFL 071853Z AUTO 32006KT 10SM FEW080 SCT120 17/M02 A2986 RMK AO2 SLP115 T01721017
KGFL 071753Z AUTO 00000KT 10SM CLR 16/M02 A2988 RMK AO2 SLP123 T01611022 10161 20072 58024
KGFL 071653Z AUTO 22005KT 10SM FEW110 15/M02 A2991 RMK AO2 SLP132 T01501022
KGFL 071553Z AUTO VRB03KT 10SM CLR 14/M03 A2994 RMK AO2 SLP141 T01441033
KGFL 071453Z AUTO VRB03KT 10SM CLR 13/M04 A2996 RMK AO2 SLP147 T01281044 58009
KGFL 071353Z AUTO 06006KT 10SM CLR 12/M01 A2997 RMK AO2 SLP151 T01171011
KGFL 071253Z AUTO 36004KT 10SM CLR 10/01 A2998 RMK AO2 SLP155 T01000006
KGFL 071153Z AUTO 36005KT 10SM CLR 07/01 A2998 RMK AO2 SLP157 T00670006 10067 20011 51003
KGFL 071053Z AUTO 01003KT 10SM CLR 05/01 A2998 RMK AO2 SLP157 T00500011
KGFL 070953Z AUTO 01005KT 10SM CLR 02/M01 A2998 RMK AO2 SLP155 T00171006
KGFL 070853Z AUTO 35004KT 10SM CLR 03/M01 A2998 RMK AO2 SLP154 T00281006 55002